Charles Town, WV

3:29 AM EDT on September 05, 2015 (GMT -0400)
Tuscawilla Hills | | Change Station
CLOSE
Current Station
Personal Weather Station
Location: Charles Town, WV
Elevation: 572 ft
Nearby Weather Stations

Elev 572 ft 39.29 °N, 77.90 °W | Updated 3 seconds ago

Partly Cloudy
Partly Cloudy
72.1 °F
Feels Like 72.1 °F
N
0.0
Wind Variable Wind from WSW
Gusts 0.0 mph

Today
High -- | Low -- °F
--% Chance of Precip.
Yesterday
High -- | Low -- °F
Precip. -- in
6:43 AM 7:36 PM
Waning Gibbous, 51% visible
Pressure 30.18 in
Visibility 3.0 miles
Clouds Mostly Cloudy 1500 ft
Overcast 9000 ft
Dew Point 69 °F
Humidity 90%
Rainfall 0.00 in
Snow Depth Not available.
UV 0 out of 12
Pollen 7.30 out of 12
Air Quality Not available.
Flu Activity Not available.
SPECI KMRB 050727Z AUTO 00000KT 3SM BR BKN015 OVC090 22/21 A3018 RMK AO2 T02170206 TSNO
Pressure 30.18 in
Visibility 3.0 miles
Clouds Mostly Cloudy 1500 ft
Overcast 9000 ft
Dew Point 69 °F
Humidity 90%
Rainfall 0.00 in
Snow Depth Not available.
UV 0 out of 12
Pollen 7.30 out of 12
Air Quality Not available.
Flu Activity Not available.
SPECI KMRB 050727Z AUTO 00000KT 3SM BR BKN015 OVC090 22/21 A3018 RMK AO2 T02170206 TSNO

10-Day Weather Forecast

×

Almanac

Astronomy

Sep. 05, 2015 Rise Set
Actual Time
Civil Twilight
Nautical Twilight
Astronomical Twilight
Moon
Length of Visible Light
Length of Day
Tomorrow will be .
, % of the Moon is Illuminated

Today's Extremes

State Highs State Lows

Community

WunderPhotos

Upload Photos

1,852,430 photos uploaded!

WunderBlogs® & News

Nearby

Air Quality

  Air Quality AQ Index Pollutant
Not available.

Snow Depth

Station Depth Elevation

Earthquake Activity

City Distance Mag. Time & Date
Minimum magnitude displayed is 2.5.

Coastal Water Temperatures

Place Temperature

Stations

Nearby Weather Stations

Station Location Temp. Windchill Dew Point Humidity Wind Precip. Elev Updated Type